China Lake, California
Current Conditions -  °F | °C
As of 6:56 PM on Friday 19 Dec 2014 (Local Time) from KNID Reporting Station
Clear Clear  
Wind Chill: 40°   Ceiling: Unl
Heat Index: 44°   Visibility: 10mi
Dew Point: 39°   Wind: 8mph
Humidity: 82%   Direction: 240°WSW
Pressure: 30.17"   Gusts: NA
Location:  35.68°N, 117.68°W
Report Text: KNID 200256Z AUTO 24007KT 10SM CLR 07/04 A3017 RMK AO2 SLP227 T00670039 53005 $
Loading
Personal Weather Stations






























Interactive Weather Map New forecast layout! Learn more

10-Day Weather Forecast

Advertisements
Track Severe Weather on mobile